sensor_id;sensor_type;location;lat;lon;timestamp;P1;durP1;ratioP1;P2;durP2;ratioP2
80910;SDS011;70359;51.420;7.032;2023-09-12T00:00:36;2.2;;;1.6;;
80910;SDS011;70359;51.420;7.032;2023-09-12T00:02:57;1.7;;;1.6;;
80910;SDS011;70359;51.420;7.032;2023-09-12T00:05:22;1.7;;;1.6;;
80910;SDS011;70359;51.420;7.032;2023-09-12T00:07:47;1.5;;;1.4;;
80910;SDS011;70359;51.420;7.032;2023-09-12T00:10:17;1.5;;;1.4;;
80910;SDS011;70359;51.420;7.032;2023-09-12T00:12:37;2.5;;;1.8;;
80910;SDS011;70359;51.420;7.032;2023-09-12T00:15:03;2.5;;;1.8;;
80910;SDS011;70359;51.420;7.032;2023-09-12T00:17:27;2.1;;;1.9;;
80910;SDS011;70359;51.420;7.032;2023-09-12T00:19:56;2.1;;;1.9;;
80910;SDS011;70359;51.420;7.032;2023-09-12T00:22:17;2.4;;;2.1;;
80910;SDS011;70359;51.420;7.032;2023-09-12T00:24:42;2.4;;;2.1;;
80910;SDS011;70359;51.420;7.032;2023-09-12T00:27:13;2.2;;;2;;
80910;SDS011;70359;51.420;7.032;2023-09-12T00:29:33;2.2;;;2;;
80910;SDS011;70359;51.420;7.032;2023-09-12T00:31:57;2.2;;;2;;
80910;SDS011;70359;51.420;7.032;2023-09-12T00:34:26;1.7;;;1.6;;
80910;SDS011;70359;51.420;7.032;2023-09-12T00:36:47;1.7;;;1.6;;
80910;SDS011;70359;51.420;7.032;2023-09-12T00:39:12;1.6;;;1.5;;
80910;SDS011;70359;51.420;7.032;2023-09-12T00:41:41;1.6;;;1.5;;
80910;SDS011;70359;51.420;7.032;2023-09-12T00:44:03;1.8;;;1.7;;
80910;SDS011;70359;51.420;7.032;2023-09-12T00:46:28;1.8;;;1.7;;
80910;SDS011;70359;51.420;7.032;2023-09-12T00:48:53;1.9;;;1.8;;
80910;SDS011;70359;51.420;7.032;2023-09-12T00:51:19;1.9;;;1.8;;
80910;SDS011;70359;51.420;7.032;2023-09-12T00:53:43;2.6;;;2.4;;
80910;SDS011;70359;51.420;7.032;2023-09-12T00:56:07;2.6;;;2.4;;
80910;SDS011;70359;51.420;7.032;2023-09-12T00:58:37;3.1;;;2.8;;
80910;SDS011;70359;51.420;7.032;2023-09-12T01:00:58;3.1;;;2.8;;
80910;SDS011;70359;51.420;7.032;2023-09-12T01:03:22;2.8;;;2.6;;
80910;SDS011;70359;51.420;7.032;2023-09-12T01:05:48;2.8;;;2.6;;
80910;SDS011;70359;51.420;7.032;2023-09-12T01:08:13;3.8;;;3.3;;
80910;SDS011;70359;51.420;7.032;2023-09-12T01:10:38;3.8;;;3.3;;
80910;SDS011;70359;51.420;7.032;2023-09-12T01:13:03;4;;;3.7;;
80910;SDS011;70359;51.420;7.032;2023-09-12T01:15:27;4;;;3.7;;
80910;SDS011;70359;51.420;7.032;2023-09-12T01:17:56;4.6;;;3.7;;
80910;SDS011;70359;51.420;7.032;2023-09-12T01:20:24;4.6;;;3.7;;
80910;SDS011;70359;51.420;7.032;2023-09-12T01:23:05;4.1;;;3.6;;
80910;SDS011;70359;51.420;7.032;2023-09-12T01:25:42;4.1;;;3.6;;
80910;SDS011;70359;51.420;7.032;2023-09-12T01:27:34;4.6;;;3.7;;
80910;SDS011;70359;51.420;7.032;2023-09-12T01:30:01;4.6;;;3.7;;
80910;SDS011;70359;51.420;7.032;2023-09-12T01:32:23;3.2;;;3;;
80910;SDS011;70359;51.420;7.032;2023-09-12T01:34:48;3.2;;;3;;
80910;SDS011;70359;51.420;7.032;2023-09-12T01:37:17;3.2;;;3;;
80910;SDS011;70359;51.420;7.032;2023-09-12T01:39:38;3.6;;;3.3;;
80910;SDS011;70359;51.420;7.032;2023-09-12T01:42:07;3.6;;;3.3;;
80910;SDS011;70359;51.420;7.032;2023-09-12T01:44:28;3.6;;;3.3;;
80910;SDS011;70359;51.420;7.032;2023-09-12T01:46:53;3.6;;;3.3;;
80910;SDS011;70359;51.420;7.032;2023-09-12T01:49:19;4.5;;;4.1;;
80910;SDS011;70359;51.420;7.032;2023-09-12T01:51:43;4.5;;;4.1;;
80910;SDS011;70359;51.420;7.032;2023-09-12T01:54:12;5.3;;;4.8;;
80910;SDS011;70359;51.420;7.032;2023-09-12T01:56:33;5.3;;;4.8;;
80910;SDS011;70359;51.420;7.032;2023-09-12T01:58:58;5.2;;;4;;
80910;SDS011;70359;51.420;7.032;2023-09-12T02:01:23;5.2;;;4;;
80910;SDS011;70359;51.420;7.032;2023-09-12T02:03:48;4.2;;;3.8;;
80910;SDS011;70359;51.420;7.032;2023-09-12T02:06:16;4.2;;;3.8;;
80910;SDS011;70359;51.420;7.032;2023-09-12T02:08:38;5.7;;;5.1;;
80910;SDS011;70359;51.420;7.032;2023-09-12T02:11:03;5.7;;;5.1;;
80910;SDS011;70359;51.420;7.032;2023-09-12T02:13:28;11.8;;;7.6;;
80910;SDS011;70359;51.420;7.032;2023-09-12T02:15:58;11.8;;;7.6;;
80910;SDS011;70359;51.420;7.032;2023-09-12T02:18:18;6.6;;;5.9;;
80910;SDS011;70359;51.420;7.032;2023-09-12T02:20:43;6.6;;;5.9;;
80910;SDS011;70359;51.420;7.032;2023-09-12T02:23:08;6.8;;;6;;
80910;SDS011;70359;51.420;7.032;2023-09-12T02:25:33;6.8;;;6;;
80910;SDS011;70359;51.420;7.032;2023-09-12T02:27:58;6.5;;;5.9;;
80910;SDS011;70359;51.420;7.032;2023-09-12T02:30:27;6.5;;;5.9;;
80910;SDS011;70359;51.420;7.032;2023-09-12T02:32:52;7.4;;;5.7;;
80910;SDS011;70359;51.420;7.032;2023-09-12T02:35:13;7.4;;;5.7;;
80910;SDS011;70359;51.420;7.032;2023-09-12T02:37:38;7.9;;;6.9;;
80910;SDS011;70359;51.420;7.032;2023-09-12T02:40:03;7.9;;;6.9;;
80910;SDS011;70359;51.420;7.032;2023-09-12T02:42:32;8;;;6.7;;
80910;SDS011;70359;51.420;7.032;2023-09-12T02:44:53;8;;;6.7;;
80910;SDS011;70359;51.420;7.032;2023-09-12T02:47:22;8;;;6.7;;
80910;SDS011;70359;51.420;7.032;2023-09-12T02:49:43;8.1;;;7.3;;
80910;SDS011;70359;51.420;7.032;2023-09-12T02:52:08;8.1;;;7.3;;
80910;SDS011;70359;51.420;7.032;2023-09-12T02:54:33;8.7;;;7.6;;
80910;SDS011;70359;51.420;7.032;2023-09-12T02:56:58;8.7;;;7.6;;
80910;SDS011;70359;51.420;7.032;2023-09-12T02:59:23;10.8;;;8.7;;
80910;SDS011;70359;51.420;7.032;2023-09-12T03:01:48;10.8;;;8.7;;
80910;SDS011;70359;51.420;7.032;2023-09-12T03:04:13;8.9;;;7.1;;
80910;SDS011;70359;51.420;7.032;2023-09-12T03:06:38;8.9;;;7.1;;
80910;SDS011;70359;51.420;7.032;2023-09-12T03:09:04;10.3;;;7.7;;
80910;SDS011;70359;51.420;7.032;2023-09-12T03:11:29;10.3;;;7.7;;
80910;SDS011;70359;51.420;7.032;2023-09-12T03:13:53;8.1;;;6.9;;
80910;SDS011;70359;51.420;7.032;2023-09-12T03:16:18;8.1;;;6.9;;
80910;SDS011;70359;51.420;7.032;2023-09-12T03:18:47;9.3;;;6.7;;
80910;SDS011;70359;51.420;7.032;2023-09-12T03:21:08;9.3;;;6.7;;
80910;SDS011;70359;51.420;7.032;2023-09-12T03:23:33;8.8;;;7.8;;
80910;SDS011;70359;51.420;7.032;2023-09-12T03:25:59;8.8;;;7.8;;
80910;SDS011;70359;51.420;7.032;2023-09-12T03:28:23;10.7;;;7;;
80910;SDS011;70359;51.420;7.032;2023-09-12T03:30:48;10.7;;;7;;
80910;SDS011;70359;51.420;7.032;2023-09-12T03:33:13;7.2;;;6.5;;
80910;SDS011;70359;51.420;7.032;2023-09-12T03:35:42;7.2;;;6.5;;
80910;SDS011;70359;51.420;7.032;2023-09-12T03:38:03;6.6;;;5.9;;
80910;SDS011;70359;51.420;7.032;2023-09-12T03:40:28;6.6;;;5.9;;
80910;SDS011;70359;51.420;7.032;2023-09-12T03:42:57;6.4;;;5.5;;
80910;SDS011;70359;51.420;7.032;2023-09-12T03:45:18;6.4;;;5.5;;
80910;SDS011;70359;51.420;7.032;2023-09-12T03:47:43;6.3;;;5.7;;
80910;SDS011;70359;51.420;7.032;2023-09-12T03:50:08;6.3;;;5.7;;
80910;SDS011;70359;51.420;7.032;2023-09-12T03:52:33;6.4;;;5.8;;
80910;SDS011;70359;51.420;7.032;2023-09-12T03:54:58;6.4;;;5.8;;
80910;SDS011;70359;51.420;7.032;2023-09-12T03:57:23;6.4;;;5.8;;
80910;SDS011;70359;51.420;7.032;2023-09-12T03:59:48;6.6;;;5.8;;
80910;SDS011;70359;51.420;7.032;2023-09-12T04:02:13;6.6;;;5.8;;
80910;SDS011;70359;51.420;7.032;2023-09-12T04:04:38;6.2;;;5.3;;
80910;SDS011;70359;51.420;7.032;2023-09-12T04:07:03;6.2;;;5.3;;
80910;SDS011;70359;51.420;7.032;2023-09-12T04:09:28;7.3;;;5.5;;
80910;SDS011;70359;51.420;7.032;2023-09-12T04:11:57;7.3;;;5.5;;
80910;SDS011;70359;51.420;7.032;2023-09-12T04:14:18;10.5;;;5.3;;
80910;SDS011;70359;51.420;7.032;2023-09-12T04:16:43;10.5;;;5.3;;
80910;SDS011;70359;51.420;7.032;2023-09-12T04:19:08;5.7;;;5.1;;
80910;SDS011;70359;51.420;7.032;2023-09-12T04:21:33;5.7;;;5.1;;
80910;SDS011;70359;51.420;7.032;2023-09-12T04:23:58;6.3;;;4.9;;
80910;SDS011;70359;51.420;7.032;2023-09-12T04:26:23;6.3;;;4.9;;
80910;SDS011;70359;51.420;7.032;2023-09-12T04:28:54;6.6;;;5.3;;
80910;SDS011;70359;51.420;7.032;2023-09-12T04:31:13;6.6;;;5.3;;
80910;SDS011;70359;51.420;7.032;2023-09-12T04:33:38;5.5;;;4.8;;
80910;SDS011;70359;51.420;7.032;2023-09-12T04:36:04;5.5;;;4.8;;
80910;SDS011;70359;51.420;7.032;2023-09-12T04:38:28;5.4;;;4.4;;
80910;SDS011;70359;51.420;7.032;2023-09-12T04:40:56;5.4;;;4.4;;
80910;SDS011;70359;51.420;7.032;2023-09-12T04:43:18;4.8;;;4.4;;
80910;SDS011;70359;51.420;7.032;2023-09-12T04:45:43;4.8;;;4.4;;
80910;SDS011;70359;51.420;7.032;2023-09-12T04:48:08;4.4;;;4;;
80910;SDS011;70359;51.420;7.032;2023-09-12T04:50:33;4.4;;;4;;
80910;SDS011;70359;51.420;7.032;2023-09-12T04:52:58;4.8;;;4.1;;
80910;SDS011;70359;51.420;7.032;2023-09-12T04:55:23;4.8;;;4.1;;
80910;SDS011;70359;51.420;7.032;2023-09-12T04:57:48;3.8;;;3.5;;
80910;SDS011;70359;51.420;7.032;2023-09-12T05:00:14;3.8;;;3.5;;
80910;SDS011;70359;51.420;7.032;2023-09-12T05:02:38;4.1;;;3.7;;
80910;SDS011;70359;51.420;7.032;2023-09-12T05:05:03;4.1;;;3.7;;
80910;SDS011;70359;51.420;7.032;2023-09-12T05:07:28;4.1;;;3.7;;
80910;SDS011;70359;51.420;7.032;2023-09-12T05:09:53;4;;;3.3;;
80910;SDS011;70359;51.420;7.032;2023-09-12T05:12:18;4;;;3.3;;
80910;SDS011;70359;51.420;7.032;2023-09-12T05:14:43;3.1;;;2.8;;
80910;SDS011;70359;51.420;7.032;2023-09-12T05:17:08;3.1;;;2.8;;
80910;SDS011;70359;51.420;7.032;2023-09-12T05:19:37;4.5;;;2.9;;
80910;SDS011;70359;51.420;7.032;2023-09-12T05:21:58;4.5;;;2.9;;
80910;SDS011;70359;51.420;7.032;2023-09-12T05:24:23;2.7;;;2.5;;
80910;SDS011;70359;51.420;7.032;2023-09-12T05:26:48;2.7;;;2.5;;
80910;SDS011;70359;51.420;7.032;2023-09-12T05:29:13;4.7;;;3.3;;
80910;SDS011;70359;51.420;7.032;2023-09-12T05:31:38;4.7;;;3.3;;
80910;SDS011;70359;51.420;7.032;2023-09-12T05:34:07;5.5;;;3.5;;
80910;SDS011;70359;51.420;7.032;2023-09-12T05:36:28;5.5;;;3.5;;
80910;SDS011;70359;51.420;7.032;2023-09-12T05:38:53;5.6;;;3.2;;
80910;SDS011;70359;51.420;7.032;2023-09-12T05:41:18;5.6;;;3.2;;
80910;SDS011;70359;51.420;7.032;2023-09-12T05:43:43;3.6;;;3.3;;
80910;SDS011;70359;51.420;7.032;2023-09-12T05:46:08;3.6;;;3.3;;
80910;SDS011;70359;51.420;7.032;2023-09-12T05:48:33;5.4;;;3.4;;
80910;SDS011;70359;51.420;7.032;2023-09-12T05:50:58;5.4;;;3.4;;
80910;SDS011;70359;51.420;7.032;2023-09-12T05:53:23;4.8;;;3.9;;
80910;SDS011;70359;51.420;7.032;2023-09-12T05:55:48;4.8;;;3.9;;
80910;SDS011;70359;51.420;7.032;2023-09-12T05:58:13;5.1;;;3.8;;
80910;SDS011;70359;51.420;7.032;2023-09-12T06:00:38;5.1;;;3.8;;
80910;SDS011;70359;51.420;7.032;2023-09-12T06:03:08;3.9;;;3.6;;
80910;SDS011;70359;51.420;7.032;2023-09-12T06:05:28;3.9;;;3.6;;
80910;SDS011;70359;51.420;7.032;2023-09-12T06:07:53;3.4;;;3.1;;
80910;SDS011;70359;51.420;7.032;2023-09-12T06:10:22;3.4;;;3.1;;
80910;SDS011;70359;51.420;7.032;2023-09-12T06:12:46;6.6;;;3.6;;
80910;SDS011;70359;51.420;7.032;2023-09-12T06:15:09;6.6;;;3.6;;
80910;SDS011;70359;51.420;7.032;2023-09-12T06:17:37;6.6;;;3.6;;
80910;SDS011;70359;51.420;7.032;2023-09-12T06:19:58;4.4;;;4;;
80910;SDS011;70359;51.420;7.032;2023-09-12T06:22:23;4.4;;;4;;
80910;SDS011;70359;51.420;7.032;2023-09-12T06:24:49;4.5;;;4;;
80910;SDS011;70359;51.420;7.032;2023-09-12T06:27:17;4.5;;;4;;
80910;SDS011;70359;51.420;7.032;2023-09-12T06:29:38;4.7;;;4.3;;
80910;SDS011;70359;51.420;7.032;2023-09-12T06:32:04;4.7;;;4.3;;
80910;SDS011;70359;51.420;7.032;2023-09-12T06:34:28;7.3;;;6.5;;
80910;SDS011;70359;51.420;7.032;2023-09-12T06:36:53;7.3;;;6.5;;
80910;SDS011;70359;51.420;7.032;2023-09-12T06:39:18;8.9;;;7.8;;
80910;SDS011;70359;51.420;7.032;2023-09-12T06:41:43;8.9;;;7.8;;
80910;SDS011;70359;51.420;7.032;2023-09-12T06:44:08;6.4;;;5.7;;
80910;SDS011;70359;51.420;7.032;2023-09-12T06:46:33;6.4;;;5.7;;
80910;SDS011;70359;51.420;7.032;2023-09-12T06:48:58;3.4;;;3.1;;
80910;SDS011;70359;51.420;7.032;2023-09-12T06:51:24;3.4;;;3.1;;
80910;SDS011;70359;51.420;7.032;2023-09-12T06:53:48;2.8;;;2.6;;
80910;SDS011;70359;51.420;7.032;2023-09-12T06:56:13;2.8;;;2.6;;
80910;SDS011;70359;51.420;7.032;2023-09-12T06:58:42;1.8;;;1.7;;
80910;SDS011;70359;51.420;7.032;2023-09-12T07:01:06;1.8;;;1.7;;
80910;SDS011;70359;51.420;7.032;2023-09-12T07:03:28;2.9;;;1.8;;
80910;SDS011;70359;51.420;7.032;2023-09-12T07:05:57;2.9;;;1.8;;
80910;SDS011;70359;51.420;7.032;2023-09-12T07:08:22;4.7;;;2.3;;
80910;SDS011;70359;51.420;7.032;2023-09-12T07:10:47;4.7;;;2.3;;
80910;SDS011;70359;51.420;7.032;2023-09-12T07:13:08;2.1;;;1.9;;
80910;SDS011;70359;51.420;7.032;2023-09-12T07:15:35;2.1;;;1.9;;
80910;SDS011;70359;51.420;7.032;2023-09-12T07:17:58;3.1;;;2.5;;
80910;SDS011;70359;51.420;7.032;2023-09-12T07:20:27;3.1;;;2.5;;
80910;SDS011;70359;51.420;7.032;2023-09-12T07:22:48;3.1;;;2.5;;
80910;SDS011;70359;51.420;7.032;2023-09-12T07:25:14;2.4;;;2.2;;
80910;SDS011;70359;51.420;7.032;2023-09-12T07:27:38;2.4;;;2.2;;
80910;SDS011;70359;51.420;7.032;2023-09-12T07:30:04;3.3;;;2.2;;
80910;SDS011;70359;51.420;7.032;2023-09-12T07:32:28;3.3;;;2.2;;
80910;SDS011;70359;51.420;7.032;2023-09-12T07:34:57;1.8;;;1.7;;
80910;SDS011;70359;51.420;7.032;2023-09-12T07:37:18;1.8;;;1.7;;
80910;SDS011;70359;51.420;7.032;2023-09-12T07:39:43;1.9;;;1.8;;
80910;SDS011;70359;51.420;7.032;2023-09-12T07:42:12;1.9;;;1.8;;
80910;SDS011;70359;51.420;7.032;2023-09-12T07:44:33;2.3;;;1.8;;
80910;SDS011;70359;51.420;7.032;2023-09-12T07:46:58;2.3;;;1.8;;
80910;SDS011;70359;51.420;7.032;2023-09-12T07:49:23;1.6;;;1.5;;
80910;SDS011;70359;51.420;7.032;2023-09-12T07:51:48;1.6;;;1.5;;
80910;SDS011;70359;51.420;7.032;2023-09-12T07:54:13;1.9;;;1.6;;
80910;SDS011;70359;51.420;7.032;2023-09-12T07:56:38;1.9;;;1.6;;
80910;SDS011;70359;51.420;7.032;2023-09-12T07:59:07;1.4;;;1.2;;
80910;SDS011;70359;51.420;7.032;2023-09-12T08:01:28;1.4;;;1.2;;
80910;SDS011;70359;51.420;7.032;2023-09-12T08:03:53;1.8;;;1.4;;
80910;SDS011;70359;51.420;7.032;2023-09-12T08:06:18;1.8;;;1.4;;
80910;SDS011;70359;51.420;7.032;2023-09-12T08:08:44;3;;;2.2;;
80910;SDS011;70359;51.420;7.032;2023-09-12T08:11:08;3;;;2.2;;
80910;SDS011;70359;51.420;7.032;2023-09-12T08:13:33;4.3;;;1.7;;
80910;SDS011;70359;51.420;7.032;2023-09-12T08:16:03;4.3;;;1.7;;
80910;SDS011;70359;51.420;7.032;2023-09-12T08:18:26;1.7;;;1.6;;
80910;SDS011;70359;51.420;7.032;2023-09-12T08:20:48;1.7;;;1.6;;
80910;SDS011;70359;51.420;7.032;2023-09-12T08:23:14;2;;;1.7;;
80910;SDS011;70359;51.420;7.032;2023-09-12T08:25:39;2;;;1.7;;
80910;SDS011;70359;51.420;7.032;2023-09-12T08:28:04;2.1;;;1.7;;
80910;SDS011;70359;51.420;7.032;2023-09-12T08:30:33;2.1;;;1.7;;
80910;SDS011;70359;51.420;7.032;2023-09-12T08:32:53;2.1;;;1.7;;
80910;SDS011;70359;51.420;7.032;2023-09-12T08:35:23;2.2;;;2;;
80910;SDS011;70359;51.420;7.032;2023-09-12T08:37:44;2.2;;;2;;
80910;SDS011;70359;51.420;7.032;2023-09-12T08:40:10;3;;;2.5;;
80910;SDS011;70359;51.420;7.032;2023-09-12T08:42:41;3;;;2.5;;
80910;SDS011;70359;51.420;7.032;2023-09-12T08:44:59;2.4;;;2.2;;
80910;SDS011;70359;51.420;7.032;2023-09-12T08:47:24;2.4;;;2.2;;
80910;SDS011;70359;51.420;7.032;2023-09-12T08:49:53;2.6;;;2.4;;
80910;SDS011;70359;51.420;7.032;2023-09-12T08:52:17;2.6;;;2.4;;
80910;SDS011;70359;51.420;7.032;2023-09-12T08:54:39;3.5;;;2.9;;
80910;SDS011;70359;51.420;7.032;2023-09-12T08:57:05;3.5;;;2.9;;
80910;SDS011;70359;51.420;7.032;2023-09-12T08:59:29;2.5;;;2.3;;
80910;SDS011;70359;51.420;7.032;2023-09-12T09:01:55;2.5;;;2.3;;
80910;SDS011;70359;51.420;7.032;2023-09-12T09:04:19;2.8;;;2.6;;
80910;SDS011;70359;51.420;7.032;2023-09-12T09:06:44;2.8;;;2.6;;
80910;SDS011;70359;51.420;7.032;2023-09-12T09:09:13;2.7;;;2.5;;
80910;SDS011;70359;51.420;7.032;2023-09-12T09:11:34;2.7;;;2.5;;
80910;SDS011;70359;51.420;7.032;2023-09-12T09:13:59;2.7;;;2.4;;
80910;SDS011;70359;51.420;7.032;2023-09-12T09:16:28;2.7;;;2.4;;
80910;SDS011;70359;51.420;7.032;2023-09-12T09:18:56;3.3;;;2.8;;
80910;SDS011;70359;51.420;7.032;2023-09-12T09:21:21;3.3;;;2.8;;
80910;SDS011;70359;51.420;7.032;2023-09-12T09:23:44;3.5;;;2.9;;
80910;SDS011;70359;51.420;7.032;2023-09-12T09:26:04;3.5;;;2.9;;
80910;SDS011;70359;51.420;7.032;2023-09-12T09:28:29;2.8;;;2.6;;
80910;SDS011;70359;51.420;7.032;2023-09-12T09:30:54;2.8;;;2.6;;
80910;SDS011;70359;51.420;7.032;2023-09-12T09:33:19;2.9;;;2.6;;
80910;SDS011;70359;51.420;7.032;2023-09-12T09:35:46;2.9;;;2.6;;
80910;SDS011;70359;51.420;7.032;2023-09-12T09:38:09;2.7;;;2.2;;
80910;SDS011;70359;51.420;7.032;2023-09-12T09:40:34;2.7;;;2.2;;
80910;SDS011;70359;51.420;7.032;2023-09-12T09:43:00;2.7;;;2.2;;
80910;SDS011;70359;51.420;7.032;2023-09-12T09:45:24;2.6;;;2.1;;
80910;SDS011;70359;51.420;7.032;2023-09-12T09:47:53;2.6;;;2.1;;
80910;SDS011;70359;51.420;7.032;2023-09-12T09:50:17;2.5;;;2.3;;
80910;SDS011;70359;51.420;7.032;2023-09-12T09:52:39;2.5;;;2.3;;
80910;SDS011;70359;51.420;7.032;2023-09-12T09:55:06;4;;;2.5;;
80910;SDS011;70359;51.420;7.032;2023-09-12T09:57:29;4;;;2.5;;
80910;SDS011;70359;51.420;7.032;2023-09-12T09:59:54;2.1;;;1.9;;
80910;SDS011;70359;51.420;7.032;2023-09-12T10:02:22;2.1;;;1.9;;
80910;SDS011;70359;51.420;7.032;2023-09-12T10:04:44;2.7;;;1.8;;
80910;SDS011;70359;51.420;7.032;2023-09-12T10:07:09;2.7;;;1.8;;
80910;SDS011;70359;51.420;7.032;2023-09-12T10:09:34;2.4;;;1.5;;
80910;SDS011;70359;51.420;7.032;2023-09-12T10:12:03;2.4;;;1.5;;
80910;SDS011;70359;51.420;7.032;2023-09-12T10:14:26;1.4;;;1.3;;
80910;SDS011;70359;51.420;7.032;2023-09-12T10:16:49;1.4;;;1.3;;
80910;SDS011;70359;51.420;7.032;2023-09-12T10:19:16;1.8;;;1.7;;
80910;SDS011;70359;51.420;7.032;2023-09-12T10:21:50;1.8;;;1.7;;
80910;SDS011;70359;51.420;7.032;2023-09-12T10:24:05;1.5;;;1.4;;
80910;SDS011;70359;51.420;7.032;2023-09-12T10:26:31;1.5;;;1.4;;
80910;SDS011;70359;51.420;7.032;2023-09-12T10:28:54;1.4;;;1.3;;
80910;SDS011;70359;51.420;7.032;2023-09-12T10:31:19;1.4;;;1.3;;
80910;SDS011;70359;51.420;7.032;2023-09-12T10:33:44;1.9;;;1.7;;
80910;SDS011;70359;51.420;7.032;2023-09-12T10:36:09;1.9;;;1.7;;
80910;SDS011;70359;51.420;7.032;2023-09-12T10:38:40;1.7;;;1.6;;
80910;SDS011;70359;51.420;7.032;2023-09-12T10:41:00;1.7;;;1.6;;
80910;SDS011;70359;51.420;7.032;2023-09-12T10:43:24;1.4;;;1.3;;
80910;SDS011;70359;51.420;7.032;2023-09-12T10:45:49;1.4;;;1.3;;
80910;SDS011;70359;51.420;7.032;2023-09-12T10:48:32;6.3;;;1.6;;
80910;SDS011;70359;51.420;7.032;2023-09-12T10:50:39;6.3;;;1.6;;
80910;SDS011;70359;51.420;7.032;2023-09-12T10:53:12;6.3;;;1.6;;
80910;SDS011;70359;51.420;7.032;2023-09-12T10:55:29;1.7;;;1.4;;
80910;SDS011;70359;51.420;7.032;2023-09-12T10:58:07;1.7;;;1.4;;
80910;SDS011;70359;51.420;7.032;2023-09-12T11:00:23;2.1;;;1.6;;
80910;SDS011;70359;51.420;7.032;2023-09-12T11:02:44;2.1;;;1.6;;
80910;SDS011;70359;51.420;7.032;2023-09-12T11:05:39;1.4;;;1.3;;
80910;SDS011;70359;51.420;7.032;2023-09-12T11:07:44;1.4;;;1.3;;
80910;SDS011;70359;51.420;7.032;2023-09-12T11:10:21;1.5;;;1.4;;
80910;SDS011;70359;51.420;7.032;2023-09-12T11:12:41;1.5;;;1.4;;
80910;SDS011;70359;51.420;7.032;2023-09-12T11:15:07;2.1;;;1.7;;
80910;SDS011;70359;51.420;7.032;2023-09-12T11:17:26;2.1;;;1.7;;
80910;SDS011;70359;51.420;7.032;2023-09-12T11:19:47;1.5;;;1.4;;
80910;SDS011;70359;51.420;7.032;2023-09-12T11:22:24;1.5;;;1.4;;
80910;SDS011;70359;51.420;7.032;2023-09-12T11:24:46;3.3;;;2.1;;
80910;SDS011;70359;51.420;7.032;2023-09-12T11:26:58;3.3;;;2.1;;
80910;SDS011;70359;51.420;7.032;2023-09-12T11:29:19;2.9;;;2.4;;
80910;SDS011;70359;51.420;7.032;2023-09-12T11:31:51;2.9;;;2.4;;
80910;SDS011;70359;51.420;7.032;2023-09-12T11:34:09;2.5;;;2.3;;
80910;SDS011;70359;51.420;7.032;2023-09-12T11:36:37;2.5;;;2.3;;
80910;SDS011;70359;51.420;7.032;2023-09-12T11:39:02;2.1;;;1.9;;
80910;SDS011;70359;51.420;7.032;2023-09-12T11:41:45;2.1;;;1.9;;
80910;SDS011;70359;51.420;7.032;2023-09-12T11:43:49;2.9;;;2.3;;
80910;SDS011;70359;51.420;7.032;2023-09-12T11:46:15;2.9;;;2.3;;
80910;SDS011;70359;51.420;7.032;2023-09-12T11:48:39;2.2;;;2;;
80910;SDS011;70359;51.420;7.032;2023-09-12T11:51:07;2.2;;;2;;
80910;SDS011;70359;51.420;7.032;2023-09-12T11:53:29;2.5;;;2.3;;
80910;SDS011;70359;51.420;7.032;2023-09-12T11:55:56;2.5;;;2.3;;
80910;SDS011;70359;51.420;7.032;2023-09-12T11:58:19;2.5;;;2.3;;
80910;SDS011;70359;51.420;7.032;2023-09-12T12:00:48;1.9;;;1.8;;
80910;SDS011;70359;51.420;7.032;2023-09-12T12:03:09;1.9;;;1.8;;
80910;SDS011;70359;51.420;7.032;2023-09-12T12:05:34;2;;;1.9;;
80910;SDS011;70359;51.420;7.032;2023-09-12T12:07:59;2;;;1.9;;
80910;SDS011;70359;51.420;7.032;2023-09-12T12:10:24;2.1;;;2;;
80910;SDS011;70359;51.420;7.032;2023-09-12T12:12:52;2.1;;;2;;
80910;SDS011;70359;51.420;7.032;2023-09-12T12:15:14;2.4;;;2.2;;
80910;SDS011;70359;51.420;7.032;2023-09-12T12:17:40;2.4;;;2.2;;
80910;SDS011;70359;51.420;7.032;2023-09-12T12:20:10;2.4;;;2.2;;
80910;SDS011;70359;51.420;7.032;2023-09-12T12:22:29;2.4;;;2.2;;
80910;SDS011;70359;51.420;7.032;2023-09-12T12:24:54;2.3;;;2.1;;
80910;SDS011;70359;51.420;7.032;2023-09-12T12:27:23;2.3;;;2.1;;
80910;SDS011;70359;51.420;7.032;2023-09-12T12:29:45;4.1;;;3.1;;
80910;SDS011;70359;51.420;7.032;2023-09-12T12:32:10;4.1;;;3.1;;
80910;SDS011;70359;51.420;7.032;2023-09-12T12:34:39;3.1;;;2.3;;
80910;SDS011;70359;51.420;7.032;2023-09-12T12:37:03;3.1;;;2.3;;
80910;SDS011;70359;51.420;7.032;2023-09-12T12:39:24;5.2;;;3.3;;
80910;SDS011;70359;51.420;7.032;2023-09-12T12:41:51;5.2;;;3.3;;
80910;SDS011;70359;51.420;7.032;2023-09-12T12:44:14;3.1;;;2.9;;
80910;SDS011;70359;51.420;7.032;2023-09-12T12:46:47;3.1;;;2.9;;
80910;SDS011;70359;51.420;7.032;2023-09-12T12:49:04;3.5;;;3.2;;
80910;SDS011;70359;51.420;7.032;2023-09-12T12:51:29;3.5;;;3.2;;
80910;SDS011;70359;51.420;7.032;2023-09-12T12:53:55;6.3;;;2.9;;
80910;SDS011;70359;51.420;7.032;2023-09-12T12:56:22;6.3;;;2.9;;
80910;SDS011;70359;51.420;7.032;2023-09-12T12:58:50;2.7;;;2.5;;
80910;SDS011;70359;51.420;7.032;2023-09-12T13:01:13;2.7;;;2.5;;
80910;SDS011;70359;51.420;7.032;2023-09-12T13:03:34;2.6;;;2.4;;
80910;SDS011;70359;51.420;7.032;2023-09-12T13:05:59;2.6;;;2.4;;
80910;SDS011;70359;51.420;7.032;2023-09-12T13:08:24;2.6;;;2.4;;
80910;SDS011;70359;51.420;7.032;2023-09-12T13:10:49;3.6;;;2.8;;
80910;SDS011;70359;51.420;7.032;2023-09-12T13:13:18;3.6;;;2.8;;
80910;SDS011;70359;51.420;7.032;2023-09-12T13:15:39;2.6;;;2.4;;
80910;SDS011;70359;51.420;7.032;2023-09-12T13:18:04;2.6;;;2.4;;
80910;SDS011;70359;51.420;7.032;2023-09-12T13:20:29;4.7;;;3.2;;
80910;SDS011;70359;51.420;7.032;2023-09-12T13:22:54;4.7;;;3.2;;
80910;SDS011;70359;51.420;7.032;2023-09-12T13:25:19;2.8;;;2.5;;
80910;SDS011;70359;51.420;7.032;2023-09-12T13:27:48;2.8;;;2.5;;
80910;SDS011;70359;51.420;7.032;2023-09-12T13:30:10;2.3;;;2.1;;
80910;SDS011;70359;51.420;7.032;2023-09-12T13:32:34;2.3;;;2.1;;
80910;SDS011;70359;51.420;7.032;2023-09-12T13:34:59;2.4;;;2.2;;
80910;SDS011;70359;51.420;7.032;2023-09-12T13:37:24;2.4;;;2.2;;
80910;SDS011;70359;51.420;7.032;2023-09-12T13:39:49;3.1;;;2.4;;
80910;SDS011;70359;51.420;7.032;2023-09-12T13:42:18;3.1;;;2.4;;
80910;SDS011;70359;51.420;7.032;2023-09-12T13:44:39;2.7;;;2.5;;
80910;SDS011;70359;51.420;7.032;2023-09-12T13:47:04;2.7;;;2.5;;
80910;SDS011;70359;51.420;7.032;2023-09-12T13:49:29;2.3;;;2.1;;
80910;SDS011;70359;51.420;7.032;2023-09-12T13:51:54;2.3;;;2.1;;
80910;SDS011;70359;51.420;7.032;2023-09-12T13:54:19;3;;;2.7;;
80910;SDS011;70359;51.420;7.032;2023-09-12T13:56:44;3;;;2.7;;
80910;SDS011;70359;51.420;7.032;2023-09-12T13:59:10;3.3;;;3;;
80910;SDS011;70359;51.420;7.032;2023-09-12T14:01:34;3.3;;;3;;
80910;SDS011;70359;51.420;7.032;2023-09-12T14:03:59;3.4;;;3.1;;
80910;SDS011;70359;51.420;7.032;2023-09-12T14:06:24;3.4;;;3.1;;
80910;SDS011;70359;51.420;7.032;2023-09-12T14:08:49;2.6;;;2.4;;
80910;SDS011;70359;51.420;7.032;2023-09-12T14:11:27;2.6;;;2.4;;
80910;SDS011;70359;51.420;7.032;2023-09-12T14:13:39;3.1;;;2.6;;
80910;SDS011;70359;51.420;7.032;2023-09-12T14:16:04;3.1;;;2.6;;
80910;SDS011;70359;51.420;7.032;2023-09-12T14:18:33;3.1;;;2.6;;
80910;SDS011;70359;51.420;7.032;2023-09-12T14:20:54;2.9;;;2.7;;
80910;SDS011;70359;51.420;7.032;2023-09-12T14:23:23;2.9;;;2.7;;
80910;SDS011;70359;51.420;7.032;2023-09-12T14:25:44;2.6;;;2.4;;
80910;SDS011;70359;51.420;7.032;2023-09-12T14:28:13;2.6;;;2.4;;
80910;SDS011;70359;51.420;7.032;2023-09-12T14:30:34;4;;;3;;
80910;SDS011;70359;51.420;7.032;2023-09-12T14:32:59;4;;;3;;
80910;SDS011;70359;51.420;7.032;2023-09-12T14:35:24;3.2;;;2.9;;
80910;SDS011;70359;51.420;7.032;2023-09-12T14:37:49;3.2;;;2.9;;
80910;SDS011;70359;51.420;7.032;2023-09-12T14:40:15;3;;;2.4;;
80910;SDS011;70359;51.420;7.032;2023-09-12T14:42:39;3;;;2.4;;
80910;SDS011;70359;51.420;7.032;2023-09-12T14:45:05;3.1;;;2.8;;
80910;SDS011;70359;51.420;7.032;2023-09-12T14:47:29;3.1;;;2.8;;
80910;SDS011;70359;51.420;7.032;2023-09-12T14:49:54;5.6;;;2.7;;
80910;SDS011;70359;51.420;7.032;2023-09-12T14:52:23;5.6;;;2.7;;
80910;SDS011;70359;51.420;7.032;2023-09-12T14:54:44;3.2;;;2.8;;
80910;SDS011;70359;51.420;7.032;2023-09-12T14:57:09;3.2;;;2.8;;
80910;SDS011;70359;51.420;7.032;2023-09-12T14:59:34;3.6;;;3.3;;
80910;SDS011;70359;51.420;7.032;2023-09-12T15:01:59;3.6;;;3.3;;
80910;SDS011;70359;51.420;7.032;2023-09-12T15:04:24;5.2;;;3.6;;